EZY686T EGGD-EGPH
Flight info
| Callsign | EZY686T |
|---|---|
| Flight time | 0h 54m |
| Altitude | 32000 |
| Route | BCN P69 DIZIM DCT KISWO DCT AVTIC DCT ANJAK N38 NOKIN UP16 RIBEL DCT INPIP |
| Aircraft | A320/M-SDE3FGHIRWY/LB1 |
Departure
| Time | 2026-04-25 18:10 |
|---|---|
| Airport | Bristol Airport (EGGD) |
Arrival
| Time | 2026-04-25 19:04 |
|---|---|
| Airport | Edinburgh Airport (EGPH) |
| Time | Latitude | Longitude | Altitude | Speed | Heading |
|---|---|---|---|---|---|
| 2026-04-25 17:54 | 51.38555 | -2.71082 | 612 ft | 0 kts | 356° |
| 2026-04-25 18:03 | 51.38546 | -2.71082 | 625 ft | 2 kts | 352° |
| 2026-04-25 18:03 | 51.38530 | -2.71078 | 612 ft | 2 kts | 344° |
| 2026-04-25 18:03 | 51.38514 | -2.71071 | 615 ft | 2 kts | 341° |
| 2026-04-25 18:03 | 51.38499 | -2.71061 | 612 ft | 2 kts | 330° |
| 2026-04-25 18:04 | 51.38485 | -2.71046 | 627 ft | 2 kts | 316° |
| 2026-04-25 18:04 | 51.38474 | -2.71027 | 617 ft | 2 kts | 301° |
| 2026-04-25 18:04 | 51.38467 | -2.71003 | 622 ft | 2 kts | 285° |
| 2026-04-25 18:04 | 51.38463 | -2.70977 | 620 ft | 2 kts | 273° |
| 2026-04-25 18:05 | 51.38463 | -2.70960 | 617 ft | 1 kts | 266° |
| 2026-04-25 18:05 | 51.38463 | -2.70959 | 617 ft | 0 kts | 266° |
| 2026-04-25 18:06 | 51.38462 | -2.70972 | 618 ft | 4 kts | 267° |
| 2026-04-25 18:06 | 51.38460 | -2.71061 | 617 ft | 12 kts | 267° |
| 2026-04-25 18:06 | 51.38453 | -2.71229 | 620 ft | 19 kts | 267° |
| 2026-04-25 18:06 | 51.38444 | -2.71470 | 614 ft | 25 kts | 266° |
| 2026-04-25 18:07 | 51.38432 | -2.71776 | 615 ft | 30 kts | 267° |
| 2026-04-25 18:07 | 51.38429 | -2.72120 | 620 ft | 31 kts | 262° |
| 2026-04-25 18:07 | 51.38414 | -2.72459 | 618 ft | 31 kts | 266° |
| 2026-04-25 18:07 | 51.38402 | -2.72782 | 624 ft | 12 kts | 266° |
| 2026-04-25 18:08 | 51.38398 | -2.72877 | 620 ft | 11 kts | 266° |
| 2026-04-25 18:08 | 51.38392 | -2.73048 | 621 ft | 19 kts | 267° |
| 2026-04-25 18:08 | 51.38369 | -2.73284 | 629 ft | 19 kts | 239° |
| 2026-04-25 18:08 | 51.38252 | -2.73333 | 629 ft | 19 kts | 165° |
| 2026-04-25 18:09 | 51.38216 | -2.73254 | 625 ft | 16 kts | 93° |
| 2026-04-25 18:09 | 51.38247 | -2.72444 | 617 ft | 103 kts | 86° |
| 2026-04-25 18:09 | 51.38308 | -2.70977 | 635 ft | 157 kts | 85° |
| 2026-04-25 18:09 | 51.38355 | -2.69824 | 1068 ft | 154 kts | 86° |
| 2026-04-25 18:10 | 51.38418 | -2.67559 | 2028 ft | 157 kts | 88° |
| 2026-04-25 18:10 | 51.38471 | -2.65687 | 2409 ft | 179 kts | 88° |
| 2026-04-25 18:10 | 51.38532 | -2.63565 | 2774 ft | 202 kts | 87° |
| 2026-04-25 18:10 | 51.38603 | -2.61198 | 3164 ft | 222 kts | 87° |
| 2026-04-25 18:11 | 51.38685 | -2.58584 | 3587 ft | 248 kts | 86° |
| 2026-04-25 18:11 | 51.39127 | -2.55848 | 4250 ft | 263 kts | 57° |
| 2026-04-25 18:11 | 51.40501 | -2.53940 | 5172 ft | 268 kts | 22° |
| 2026-04-25 18:11 | 51.42312 | -2.53613 | 6111 ft | 271 kts | 348° |
| 2026-04-25 18:12 | 51.43982 | -2.54989 | 7050 ft | 276 kts | 317° |
| 2026-04-25 18:12 | 51.45197 | -2.57376 | 7997 ft | 278 kts | 303° |
| 2026-04-25 18:12 | 51.46437 | -2.59767 | 8904 ft | 283 kts | 322° |
| 2026-04-25 18:12 | 51.48109 | -2.61464 | 9835 ft | 286 kts | 328° |
| 2026-04-25 18:13 | 51.49835 | -2.63136 | 10548 ft | 299 kts | 328° |
| 2026-04-25 18:13 | 51.51676 | -2.64947 | 10866 ft | 322 kts | 327° |
| 2026-04-25 18:13 | 51.53624 | -2.66889 | 11427 ft | 335 kts | 327° |
| 2026-04-25 18:14 | 51.57630 | -2.70923 | 13020 ft | 344 kts | 327° |
| 2026-04-25 18:14 | 51.59665 | -2.72991 | 13860 ft | 348 kts | 327° |
| 2026-04-25 18:14 | 51.61722 | -2.75083 | 14587 ft | 352 kts | 326° |
| 2026-04-25 18:14 | 51.63797 | -2.77197 | 15316 ft | 355 kts | 326° |
| 2026-04-25 18:15 | 51.65889 | -2.79337 | 16046 ft | 358 kts | 326° |
| 2026-04-25 18:15 | 51.68001 | -2.81496 | 16787 ft | 361 kts | 326° |
| 2026-04-25 18:15 | 51.70130 | -2.83667 | 17503 ft | 364 kts | 326° |
| 2026-04-25 18:15 | 51.72281 | -2.85857 | 18202 ft | 367 kts | 326° |
| 2026-04-25 18:16 | 51.74452 | -2.88069 | 18848 ft | 371 kts | 326° |
| 2026-04-25 18:16 | 51.76637 | -2.90302 | 19160 ft | 372 kts | 326° |
| 2026-04-25 18:16 | 51.81007 | -2.94784 | 19275 ft | 372 kts | 326° |
| 2026-04-25 18:17 | 51.83189 | -2.97033 | 19266 ft | 372 kts | 326° |
| 2026-04-25 18:17 | 51.85370 | -2.99279 | 19254 ft | 372 kts | 326° |
| 2026-04-25 18:17 | 51.87523 | -3.01492 | 19266 ft | 372 kts | 326° |
| 2026-04-25 18:17 | 51.89707 | -3.03738 | 19247 ft | 372 kts | 326° |
| 2026-04-25 18:18 | 51.91889 | -3.05986 | 19248 ft | 372 kts | 326° |
| 2026-04-25 18:18 | 51.94070 | -3.08238 | 19243 ft | 372 kts | 326° |
| 2026-04-25 18:18 | 51.96249 | -3.10497 | 19217 ft | 372 kts | 325° |
| 2026-04-25 18:18 | 51.98430 | -3.12760 | 19217 ft | 372 kts | 326° |
| 2026-04-25 18:19 | 52.00620 | -3.14995 | 19219 ft | 373 kts | 328° |
| 2026-04-25 18:19 | 52.02977 | -3.16775 | 19203 ft | 375 kts | 338° |
| 2026-04-25 18:19 | 52.05510 | -3.17857 | 19347 ft | 381 kts | 349° |
| 2026-04-25 18:19 | 52.08162 | -3.18180 | 19985 ft | 385 kts | 358° |
| 2026-04-25 18:20 | 52.10845 | -3.17991 | 20603 ft | 387 kts | 0° |
| 2026-04-25 18:20 | 52.13545 | -3.17783 | 21206 ft | 390 kts | 0° |
| 2026-04-25 18:20 | 52.16262 | -3.17577 | 21791 ft | 392 kts | 0° |
| 2026-04-25 18:20 | 52.18997 | -3.17374 | 22374 ft | 395 kts | 0° |
| 2026-04-25 18:21 | 52.21749 | -3.17170 | 22939 ft | 397 kts | 0° |
| 2026-04-25 18:21 | 52.24518 | -3.16963 | 23483 ft | 400 kts | 0° |
| 2026-04-25 18:21 | 52.27307 | -3.16753 | 24009 ft | 403 kts | 0° |
| 2026-04-25 18:21 | 52.30077 | -3.16543 | 24452 ft | 405 kts | 0° |
| 2026-04-25 18:22 | 52.32901 | -3.16329 | 24898 ft | 408 kts | 360° |
| 2026-04-25 18:22 | 52.34822 | -3.16183 | 25187 ft | 409 kts | 360° |
| 2026-04-25 18:22 | 52.38603 | -3.15887 | 25759 ft | 413 kts | 360° |
| 2026-04-25 18:22 | 52.41479 | -3.15659 | 26179 ft | 415 kts | 360° |
| 2026-04-25 18:23 | 52.44373 | -3.15432 | 26607 ft | 418 kts | 359° |
| 2026-04-25 18:23 | 52.47281 | -3.15204 | 27020 ft | 420 kts | 359° |
| 2026-04-25 18:23 | 52.50211 | -3.14975 | 27427 ft | 423 kts | 359° |
| 2026-04-25 18:23 | 52.53157 | -3.14743 | 27845 ft | 425 kts | 359° |
| 2026-04-25 18:24 | 52.56121 | -3.14509 | 28237 ft | 428 kts | 359° |
| 2026-04-25 18:24 | 52.59105 | -3.14274 | 28631 ft | 430 kts | 359° |
| 2026-04-25 18:24 | 52.62103 | -3.14037 | 29023 ft | 433 kts | 359° |
| 2026-04-25 18:24 | 52.65119 | -3.13796 | 29407 ft | 435 kts | 359° |
| 2026-04-25 18:25 | 52.68155 | -3.13552 | 29766 ft | 438 kts | 0° |
| 2026-04-25 18:25 | 52.71197 | -3.12865 | 30116 ft | 445 kts | 9° |
| 2026-04-25 18:25 | 52.74175 | -3.11375 | 30433 ft | 452 kts | 18° |
| 2026-04-25 18:25 | 52.77045 | -3.09199 | 30709 ft | 456 kts | 22° |
| 2026-04-25 18:26 | 52.79916 | -3.06943 | 30994 ft | 458 kts | 22° |
| 2026-04-25 18:26 | 52.82795 | -3.04686 | 31282 ft | 459 kts | 22° |
| 2026-04-25 18:26 | 52.85691 | -3.02417 | 31605 ft | 460 kts | 22° |
| 2026-04-25 18:26 | 52.88579 | -3.00155 | 32022 ft | 459 kts | 22° |
| 2026-04-25 18:27 | 52.91525 | -2.98148 | 32175 ft | 455 kts | 17° |
| 2026-04-25 18:27 | 52.94415 | -2.96387 | 32201 ft | 443 kts | 17° |
| 2026-04-25 18:27 | 52.97287 | -2.94638 | 32199 ft | 438 kts | 17° |
| 2026-04-25 18:28 | 53.02983 | -2.91166 | 32202 ft | 435 kts | 17° |
| 2026-04-25 18:28 | 53.08664 | -2.87683 | 32213 ft | 435 kts | 17° |
| 2026-04-25 18:29 | 53.17177 | -2.82431 | 32219 ft | 435 kts | 18° |
| 2026-04-25 18:30 | 53.28515 | -2.75381 | 32217 ft | 435 kts | 18° |
| 2026-04-25 18:30 | 53.34176 | -2.71838 | 32212 ft | 435 kts | 18° |
| 2026-04-25 18:31 | 53.39839 | -2.68285 | 32210 ft | 434 kts | 18° |
| 2026-04-25 18:31 | 53.45504 | -2.64719 | 32205 ft | 435 kts | 18° |
| 2026-04-25 18:32 | 53.51170 | -2.61171 | 32205 ft | 435 kts | 18° |
| 2026-04-25 18:32 | 53.56803 | -2.57629 | 32199 ft | 435 kts | 19° |
| 2026-04-25 18:33 | 53.62469 | -2.54039 | 32203 ft | 436 kts | 19° |
| 2026-04-25 18:33 | 53.68142 | -2.50431 | 32208 ft | 436 kts | 19° |
| 2026-04-25 18:34 | 53.73819 | -2.46813 | 32211 ft | 436 kts | 19° |
| 2026-04-25 18:34 | 53.79496 | -2.43193 | 32219 ft | 436 kts | 19° |
| 2026-04-25 18:35 | 53.85178 | -2.39567 | 32222 ft | 437 kts | 19° |
| 2026-04-25 18:35 | 53.90859 | -2.35911 | 32223 ft | 437 kts | 19° |
| 2026-04-25 18:36 | 53.96560 | -2.32344 | 32229 ft | 436 kts | 14° |
| 2026-04-25 18:36 | 54.02537 | -2.31240 | 32229 ft | 432 kts | 354° |
| 2026-04-25 18:37 | 54.08332 | -2.33588 | 32226 ft | 429 kts | 336° |
| 2026-04-25 18:37 | 54.13823 | -2.37399 | 32223 ft | 429 kts | 336° |
| 2026-04-25 18:38 | 54.19338 | -2.41232 | 32224 ft | 430 kts | 336° |
| 2026-04-25 18:38 | 54.24891 | -2.45099 | 32226 ft | 430 kts | 336° |
| 2026-04-25 18:39 | 54.30428 | -2.48967 | 32226 ft | 430 kts | 336° |
| 2026-04-25 18:39 | 54.35966 | -2.52842 | 32223 ft | 430 kts | 336° |
| 2026-04-25 18:40 | 54.41498 | -2.56721 | 32218 ft | 430 kts | 336° |
| 2026-04-25 18:40 | 54.47050 | -2.60624 | 32220 ft | 430 kts | 336° |
| 2026-04-25 18:41 | 54.52590 | -2.64544 | 32223 ft | 431 kts | 336° |
| 2026-04-25 18:41 | 54.58126 | -2.68485 | 32220 ft | 431 kts | 336° |
| 2026-04-25 18:42 | 54.61809 | -2.71107 | 32234 ft | 438 kts | 336° |
| 2026-04-25 18:42 | 54.66609 | -2.74519 | 32235 ft | 450 kts | 336° |
| 2026-04-25 18:42 | 54.69511 | -2.76583 | 32208 ft | 451 kts | 336° |
| 2026-04-25 18:43 | 54.72409 | -2.78649 | 31340 ft | 452 kts | 336° |
| 2026-04-25 18:43 | 54.75265 | -2.80694 | 30102 ft | 449 kts | 336° |
| 2026-04-25 18:43 | 54.78131 | -2.82752 | 28826 ft | 442 kts | 335° |
| 2026-04-25 18:43 | 54.80944 | -2.84777 | 27686 ft | 434 kts | 335° |
| 2026-04-25 18:44 | 54.83688 | -2.86755 | 26997 ft | 418 kts | 335° |
| 2026-04-25 18:44 | 54.86311 | -2.88642 | 26508 ft | 399 kts | 335° |
| 2026-04-25 18:44 | 54.88858 | -2.90478 | 26253 ft | 397 kts | 335° |
| 2026-04-25 18:44 | 54.91405 | -2.92321 | 26233 ft | 398 kts | 335° |
| 2026-04-25 18:45 | 54.93967 | -2.94173 | 26250 ft | 400 kts | 335° |
| 2026-04-25 18:45 | 54.96531 | -2.96029 | 26241 ft | 399 kts | 335° |
| 2026-04-25 18:45 | 54.99095 | -2.97889 | 26206 ft | 399 kts | 335° |
| 2026-04-25 18:45 | 55.01673 | -2.99763 | 25300 ft | 406 kts | 335° |
| 2026-04-25 18:46 | 55.04274 | -3.01662 | 24875 ft | 399 kts | 335° |
| 2026-04-25 18:46 | 55.06799 | -3.03501 | 24564 ft | 389 kts | 335° |
| 2026-04-25 18:46 | 55.09281 | -3.05304 | 24114 ft | 384 kts | 335° |
| 2026-04-25 18:46 | 55.11737 | -3.07090 | 23600 ft | 380 kts | 335° |
| 2026-04-25 18:47 | 55.14113 | -3.08818 | 22716 ft | 373 kts | 335° |
| 2026-04-25 18:47 | 55.16537 | -3.10587 | 21761 ft | 369 kts | 335° |
| 2026-04-25 18:47 | 55.18893 | -3.12314 | 20867 ft | 365 kts | 335° |
| 2026-04-25 18:47 | 55.21190 | -3.14000 | 20033 ft | 361 kts | 335° |
| 2026-04-25 18:48 | 55.23494 | -3.15696 | 19214 ft | 357 kts | 335° |
| 2026-04-25 18:48 | 55.25772 | -3.17372 | 18881 ft | 339 kts | 335° |
| 2026-04-25 18:48 | 55.27876 | -3.18915 | 18457 ft | 327 kts | 336° |
| 2026-04-25 18:48 | 55.30058 | -3.19954 | 17790 ft | 325 kts | 350° |
| 2026-04-25 18:49 | 55.32336 | -3.20059 | 17117 ft | 323 kts | 3° |
| 2026-04-25 18:49 | 55.34540 | -3.19700 | 16464 ft | 321 kts | 3° |
| 2026-04-25 18:49 | 55.36752 | -3.19348 | 15834 ft | 318 kts | 3° |
| 2026-04-25 18:49 | 55.38945 | -3.19004 | 15221 ft | 315 kts | 3° |
| 2026-04-25 18:50 | 55.41120 | -3.18663 | 14618 ft | 312 kts | 3° |
| 2026-04-25 18:50 | 55.43272 | -3.18324 | 14027 ft | 309 kts | 4° |
| 2026-04-25 18:50 | 55.45405 | -3.17990 | 13391 ft | 306 kts | 3° |
| 2026-04-25 18:50 | 55.47514 | -3.17665 | 12762 ft | 303 kts | 3° |
| 2026-04-25 18:51 | 55.49604 | -3.17344 | 12153 ft | 300 kts | 3° |
| 2026-04-25 18:51 | 55.50301 | -3.17237 | 11947 ft | 299 kts | 3° |
| 2026-04-25 18:51 | 55.53715 | -3.16701 | 10928 ft | 294 kts | 3° |
| 2026-04-25 18:51 | 55.55741 | -3.16381 | 10329 ft | 291 kts | 3° |
| 2026-04-25 18:52 | 55.57746 | -3.16064 | 9689 ft | 287 kts | 3° |
| 2026-04-25 18:52 | 55.59706 | -3.15752 | 9316 ft | 275 kts | 3° |
| 2026-04-25 18:52 | 55.61540 | -3.15455 | 9175 ft | 256 kts | 2° |
| 2026-04-25 18:52 | 55.63285 | -3.15176 | 8752 ft | 249 kts | 2° |
| 2026-04-25 18:53 | 55.64996 | -3.14907 | 8248 ft | 246 kts | 2° |
| 2026-04-25 18:53 | 55.66694 | -3.14636 | 7751 ft | 243 kts | 2° |
| 2026-04-25 18:53 | 55.68370 | -3.14364 | 7281 ft | 240 kts | 3° |
| 2026-04-25 18:53 | 55.70024 | -3.14094 | 6795 ft | 237 kts | 2° |
| 2026-04-25 18:54 | 55.73081 | -3.14985 | 6023 ft | 223 kts | 316° |
| 2026-04-25 18:54 | 55.73922 | -3.17256 | 5735 ft | 222 kts | 285° |
| 2026-04-25 18:54 | 55.73942 | -3.19915 | 5201 ft | 221 kts | 256° |
| 2026-04-25 18:55 | 55.73467 | -3.22520 | 4630 ft | 223 kts | 250° |
| 2026-04-25 18:55 | 55.73215 | -3.25206 | 4108 ft | 225 kts | 278° |
| 2026-04-25 18:55 | 55.73702 | -3.27773 | 3999 ft | 214 kts | 292° |
| 2026-04-25 18:55 | 55.74327 | -3.30119 | 4009 ft | 209 kts | 294° |
| 2026-04-25 18:56 | 55.74967 | -3.32437 | 4002 ft | 209 kts | 294° |
| 2026-04-25 18:56 | 55.75607 | -3.34747 | 4005 ft | 209 kts | 294° |
| 2026-04-25 18:56 | 55.76251 | -3.37063 | 4007 ft | 209 kts | 294° |
| 2026-04-25 18:56 | 55.76894 | -3.39377 | 4005 ft | 209 kts | 295° |
| 2026-04-25 18:57 | 55.77537 | -3.41687 | 3905 ft | 208 kts | 295° |
| 2026-04-25 18:57 | 55.78176 | -3.43987 | 3595 ft | 208 kts | 295° |
| 2026-04-25 18:57 | 55.78815 | -3.46304 | 3283 ft | 209 kts | 295° |
| 2026-04-25 18:57 | 55.79021 | -3.47059 | 3176 ft | 210 kts | 295° |
| 2026-04-25 18:58 | 55.80076 | -3.50976 | 3004 ft | 212 kts | 294° |
| 2026-04-25 18:58 | 55.81125 | -3.54922 | 3007 ft | 213 kts | 294° |
| 2026-04-25 18:58 | 55.81746 | -3.57253 | 3003 ft | 203 kts | 296° |
| 2026-04-25 18:59 | 55.84277 | -3.60269 | 3006 ft | 193 kts | 353° |
| 2026-04-25 18:59 | 55.86850 | -3.59462 | 2870 ft | 189 kts | 32° |
| 2026-04-25 19:00 | 55.88343 | -3.56791 | 2563 ft | 181 kts | 62° |
| 2026-04-25 19:00 | 55.88989 | -3.54898 | 2301 ft | 177 kts | 62° |
| 2026-04-25 19:01 | 55.90185 | -3.51399 | 1832 ft | 155 kts | 62° |
| 2026-04-25 19:01 | 55.90737 | -3.49780 | 1626 ft | 152 kts | 60° |
| 2026-04-25 19:01 | 55.91280 | -3.48186 | 1419 ft | 150 kts | 62° |
| 2026-04-25 19:01 | 55.91817 | -3.46608 | 1204 ft | 148 kts | 61° |
| 2026-04-25 19:02 | 55.92806 | -3.43705 | 802 ft | 128 kts | 60° |
| 2026-04-25 19:02 | 55.93250 | -3.42399 | 650 ft | 120 kts | 60° |
| 2026-04-25 19:02 | 55.93674 | -3.41152 | 477 ft | 116 kts | 59° |
| 2026-04-25 19:03 | 55.94357 | -3.39141 | 203 ft | 113 kts | 59° |
| 2026-04-25 19:03 | 55.94866 | -3.37640 | 115 ft | 88 kts | 59° |
| 2026-04-25 19:03 | 55.95139 | -3.36834 | 114 ft | 66 kts | 58° |
| 2026-04-25 19:04 | 55.95487 | -3.35803 | 109 ft | 40 kts | 58° |
| 2026-04-25 19:04 | 55.95560 | -3.35519 | 108 ft | 9 kts | 122° |
| 2026-04-25 19:05 | 55.95501 | -3.35441 | 108 ft | 8 kts | 148° |
| 2026-04-25 19:05 | 55.95394 | -3.35515 | 109 ft | 8 kts | 236° |
| 2026-04-25 19:05 | 55.95363 | -3.35604 | 110 ft | 9 kts | 239° |
| 2026-04-25 19:06 | 55.95328 | -3.35707 | 107 ft | 10 kts | 238° |
| 2026-04-25 19:06 | 55.95243 | -3.35959 | 106 ft | 18 kts | 239° |
| 2026-04-25 19:06 | 55.95172 | -3.36159 | 108 ft | 16 kts | 221° |
| 2026-04-25 19:07 | 55.95068 | -3.35902 | 109 ft | 17 kts | 119° |
| 2026-04-25 19:07 | 55.94973 | -3.35863 | 108 ft | 15 kts | 191° |
| 2026-04-25 19:08 | 55.94857 | -3.35694 | 107 ft | 7 kts | 217° |
| 2026-04-25 19:08 | 55.94816 | -3.35743 | 107 ft | 6 kts | 210° |
| 2026-04-25 19:09 | 55.94811 | -3.35748 | 108 ft | 0 kts | 210° |